createdAt,value
2023-02-27T00:00:51.946Z,95846.00
2023-02-27T00:01:52.006Z,95846.00
2023-02-27T00:02:52.059Z,95846.00
2023-02-27T00:03:52.094Z,95848.00
2023-02-27T00:04:52.161Z,95848.00
2023-02-27T00:05:52.184Z,95846.00
2023-02-27T00:06:51.213Z,95850.00
2023-02-27T00:07:51.245Z,95852.00
2023-02-27T00:08:52.402Z,95850.00
2023-02-27T00:09:52.314Z,95850.00
2023-02-27T00:10:51.410Z,95852.00
2023-02-27T00:11:51.428Z,95852.00
2023-02-27T00:12:52.435Z,95850.00
2023-02-27T00:13:52.470Z,95856.00
2023-02-27T00:14:52.508Z,95856.00
2023-02-27T00:15:52.584Z,95856.00
2023-02-27T00:16:52.762Z,95852.00
2023-02-27T00:17:51.592Z,95850.00
2023-02-27T00:18:52.628Z,95854.00
2023-02-27T00:19:52.664Z,95858.00
2023-02-27T00:20:51.723Z,95858.00
2023-02-27T00:21:52.740Z,95858.00
2023-02-27T00:22:51.807Z,95858.00
2023-02-27T00:23:52.834Z,95856.00
2023-02-27T00:24:52.839Z,95854.00
2023-02-27T00:25:52.923Z,95852.00
2023-02-27T00:26:52.955Z,95856.00
2023-02-27T00:27:52.973Z,95854.00
2023-02-27T00:28:52.029Z,95854.00
2023-02-27T00:29:53.061Z,95854.00
2023-02-27T00:30:53.103Z,95854.00
2023-02-27T00:31:53.206Z,95854.00
2023-02-27T00:32:53.112Z,95854.00
2023-02-27T00:33:53.240Z,95854.00
2023-02-27T00:34:53.250Z,95854.00
2023-02-27T00:35:53.302Z,95852.00
2023-02-27T00:36:53.285Z,95854.00
2023-02-27T00:37:52.318Z,95854.00
2023-02-27T00:38:53.380Z,95854.00
2023-02-27T00:39:53.384Z,95854.00
2023-02-27T00:40:53.476Z,95854.00
2023-02-27T00:41:53.442Z,95854.00
2023-02-27T00:42:53.494Z,95852.00
2023-02-27T00:43:53.549Z,95854.00
2023-02-27T00:44:53.568Z,95854.00
2023-02-27T00:45:53.586Z,95854.00
2023-02-27T00:46:52.679Z,95856.00
2023-02-27T00:47:52.657Z,95854.00
2023-02-27T00:48:53.713Z,95854.00
2023-02-27T00:49:53.713Z,95856.00
2023-02-27T00:50:53.824Z,95856.00
2023-02-27T00:51:53.787Z,95860.00
2023-02-27T00:52:53.816Z,95860.00
2023-02-27T00:53:53.879Z,95860.00
2023-02-27T00:54:53.888Z,95860.00
2023-02-27T00:55:53.907Z,95860.00
2023-02-27T00:56:54.006Z,95856.00
2023-02-27T00:57:54.037Z,95860.00
2023-02-27T00:58:53.022Z,95858.00
2023-02-27T00:59:53.072Z,95858.00
2023-02-27T01:00:54.134Z,95858.00
2023-02-27T01:01:53.144Z,95858.00
2023-02-27T01:02:53.257Z,95858.00
2023-02-27T01:03:54.215Z,95858.00
2023-02-27T01:04:53.269Z,95858.00
2023-02-27T01:05:53.358Z,95858.00
2023-02-27T01:06:54.347Z,95858.00
2023-02-27T01:07:54.384Z,95856.00
2023-02-27T01:08:54.426Z,95858.00
2023-02-27T01:09:54.473Z,95858.00
2023-02-27T01:10:54.521Z,95856.00
2023-02-27T01:11:54.510Z,95854.00
2023-02-27T01:12:53.558Z,95854.00
2023-02-27T01:13:54.582Z,95858.00
2023-02-27T01:14:53.644Z,95860.00
2023-02-27T01:15:53.674Z,95860.00
2023-02-27T01:16:54.715Z,95864.00
2023-02-27T01:17:54.749Z,95858.00
2023-02-27T01:18:54.791Z,95862.00
2023-02-27T01:19:54.906Z,95862.00
2023-02-27T01:20:54.881Z,95864.00
2023-02-27T01:21:54.905Z,95866.00
2023-02-27T01:22:54.971Z,95864.00
2023-02-27T01:23:55.007Z,95862.00
2023-02-27T01:24:55.067Z,95862.00
2023-02-27T01:25:55.081Z,95864.00
2023-02-27T01:26:55.151Z,95864.00
2023-02-27T01:27:54.183Z,95864.00
2023-02-27T01:28:55.216Z,95862.00
2023-02-27T01:29:55.253Z,95862.00
2023-02-27T01:30:55.379Z,95862.00
2023-02-27T01:31:55.414Z,95864.00
2023-02-27T01:32:55.422Z,95864.00
2023-02-27T01:33:55.484Z,95864.00
2023-02-27T01:34:55.461Z,95864.00
2023-02-27T01:35:55.512Z,95866.00
2023-02-27T01:36:55.558Z,95866.00
2023-02-27T01:37:54.570Z,95866.00
2023-02-27T01:38:54.611Z,95866.00
2023-02-27T01:39:55.659Z,95868.00
2023-02-27T01:40:54.701Z,95868.00
2023-02-27T01:41:55.840Z,95866.00
2023-02-27T01:42:55.827Z,95866.00
2023-02-27T01:43:55.871Z,95866.00
2023-02-27T01:44:55.860Z,95866.00
2023-02-27T01:45:55.939Z,95864.00
2023-02-27T01:46:55.965Z,95862.00
2023-02-27T01:47:56.039Z,95860.00
2023-02-27T01:48:56.022Z,95862.00
2023-02-27T01:49:56.052Z,95862.00
2023-02-27T01:52:14.251Z,95862.00
2023-02-27T01:53:15.287Z,95860.00
2023-02-27T01:54:15.241Z,95860.00
2023-02-27T01:55:15.225Z,95856.00
2023-02-27T01:56:15.208Z,95856.00
2023-02-27T01:57:15.266Z,95858.00
2023-02-27T01:58:15.228Z,95858.00
2023-02-27T01:59:15.192Z,95858.00
2023-02-27T02:00:15.187Z,95856.00
2023-02-27T02:01:14.212Z,95858.00
2023-02-27T02:02:15.220Z,95856.00
2023-02-27T02:03:15.205Z,95856.00
2023-02-27T02:04:15.264Z,95856.00
2023-02-27T02:05:15.323Z,95858.00
2023-02-27T02:06:15.365Z,95856.00
2023-02-27T02:07:15.374Z,95858.00
2023-02-27T02:08:15.426Z,95856.00
2023-02-27T02:09:14.471Z,95860.00
2023-02-27T02:10:14.514Z,95862.00
2023-02-27T02:11:15.569Z,95860.00
2023-02-27T02:12:15.643Z,95862.00
2023-02-27T02:13:15.662Z,95862.00
2023-02-27T02:14:15.764Z,95860.00
2023-02-27T02:15:15.770Z,95860.00
2023-02-27T02:16:15.808Z,95866.00
2023-02-27T02:17:15.890Z,95864.00
2023-02-27T02:18:15.952Z,95868.00
2023-02-27T02:19:14.951Z,95866.00
2023-02-27T02:20:16.013Z,95868.00
2023-02-27T02:21:16.058Z,95870.00
2023-02-27T02:22:16.092Z,95868.00
2023-02-27T02:23:15.134Z,95868.00
2023-02-27T02:24:16.216Z,95868.00
2023-02-27T02:25:16.243Z,95868.00
2023-02-27T02:26:16.268Z,95868.00
2023-02-27T02:27:16.310Z,95870.00
2023-02-27T02:28:16.356Z,95870.00
2023-02-27T02:29:15.410Z,95868.00
2023-02-27T02:30:16.460Z,95866.00
2023-02-27T02:31:16.627Z,95868.00
2023-02-27T02:32:16.579Z,95864.00
2023-02-27T02:33:16.584Z,95864.00
2023-02-27T02:34:16.641Z,95866.00
2023-02-27T02:35:15.692Z,95866.00
2023-02-27T02:36:15.744Z,95864.00
2023-02-27T02:37:16.808Z,95866.00
2023-02-27T02:38:16.831Z,95866.00
2023-02-27T02:39:15.884Z,95868.00
2023-02-27T02:40:16.974Z,95866.00
2023-02-27T02:41:17.004Z,95864.00
2023-02-27T02:42:16.073Z,95864.00
2023-02-27T02:43:17.109Z,95870.00
2023-02-27T02:44:17.166Z,95868.00
2023-02-27T02:45:17.179Z,95864.00
2023-02-27T02:46:17.326Z,95870.00
2023-02-27T02:47:17.262Z,95870.00
2023-02-27T02:48:17.322Z,95866.00
2023-02-27T02:49:17.419Z,95866.00
2023-02-27T02:51:35.619Z,95870.00
2023-02-27T02:52:36.603Z,95868.00
2023-02-27T02:53:37.588Z,95870.00
2023-02-27T02:54:36.556Z,95872.00
2023-02-27T02:55:35.543Z,95866.00
2023-02-27T02:56:35.546Z,95870.00
2023-02-27T02:57:35.618Z,95866.00
2023-02-27T02:58:49.590Z,95868.00
2023-02-27T02:59:35.579Z,95870.00
2023-02-27T03:00:36.578Z,95872.00
2023-02-27T03:01:35.595Z,95870.00
2023-02-27T03:02:36.530Z,95868.00
2023-02-27T03:03:36.506Z,95874.00
2023-02-27T03:04:36.577Z,95872.00
2023-02-27T03:05:36.514Z,95872.00
2023-02-27T03:06:36.489Z,95866.00
2023-02-27T03:07:36.541Z,95868.00
2023-02-27T03:08:36.518Z,95870.00
2023-02-27T03:10:54.682Z,95872.00
2023-02-27T03:11:54.667Z,95872.00
2023-02-27T03:12:55.669Z,95868.00
2023-02-27T03:13:55.674Z,95868.00
2023-02-27T03:14:55.652Z,95868.00
2023-02-27T03:15:55.724Z,95868.00
2023-02-27T03:16:54.654Z,95868.00
2023-02-27T03:17:54.615Z,95868.00
2023-02-27T03:18:55.617Z,95870.00
2023-02-27T03:19:55.641Z,95870.00
2023-02-27T03:20:55.675Z,95870.00
2023-02-27T03:21:55.587Z,95870.00
2023-02-27T03:22:55.588Z,95874.00
2023-02-27T03:23:54.576Z,95872.00
2023-02-27T03:24:55.587Z,95870.00
2023-02-27T03:25:57.891Z,95872.00
2023-02-27T03:26:54.643Z,95868.00
2023-02-27T03:27:55.639Z,95872.00
2023-02-27T03:28:54.637Z,95874.00
2023-02-27T03:29:55.628Z,95876.00
2023-02-27T03:30:55.720Z,95874.00
2023-02-27T03:31:55.704Z,95880.00
2023-02-27T03:32:54.627Z,95878.00
2023-02-27T03:33:55.579Z,95878.00
2023-02-27T03:34:55.584Z,95880.00
2023-02-27T03:35:55.596Z,95880.00
2023-02-27T03:36:55.579Z,95882.00
2023-02-27T03:37:54.546Z,95882.00
2023-02-27T03:38:55.538Z,95882.00
2023-02-27T03:39:55.617Z,95878.00
2023-02-27T03:40:54.538Z,95878.00
2023-02-27T03:41:55.526Z,95880.00
2023-02-27T03:42:55.514Z,95884.00
2023-02-27T03:43:55.508Z,95882.00
2023-02-27T03:44:55.502Z,95884.00
2023-02-27T03:45:55.488Z,95884.00
2023-02-27T03:46:55.478Z,95886.00
2023-02-27T03:47:54.491Z,95888.00
2023-02-27T03:48:55.488Z,95890.00
2023-02-27T03:49:54.482Z,95890.00
2023-02-27T03:50:55.471Z,95890.00
2023-02-27T03:51:55.450Z,95890.00
2023-02-27T03:52:55.435Z,95891.00
2023-02-27T03:53:54.447Z,95891.00
2023-02-27T03:54:55.532Z,95891.00
2023-02-27T03:55:55.579Z,95890.00
2023-02-27T03:56:55.640Z,95893.00
2023-02-27T03:57:54.651Z,95893.00
2023-02-27T03:58:55.743Z,95895.00
2023-02-27T03:59:54.747Z,95895.00
2023-02-27T04:00:55.818Z,95897.00
2023-02-27T04:01:55.932Z,95893.00
2023-02-27T04:02:55.991Z,95897.00
2023-02-27T04:03:55.960Z,95893.00
2023-02-27T04:04:56.044Z,95895.00
2023-02-27T04:05:55.167Z,95899.00
2023-02-27T04:06:55.131Z,95895.00
2023-02-27T04:07:55.196Z,95897.00
2023-02-27T04:08:56.237Z,95897.00
2023-02-27T04:09:56.292Z,95897.00
2023-02-27T04:10:56.389Z,95899.00
2023-02-27T04:11:56.390Z,95901.00
2023-02-27T04:12:56.425Z,95901.00
2023-02-27T04:13:56.499Z,95901.00
2023-02-27T04:14:56.531Z,95901.00
2023-02-27T04:15:56.678Z,95899.00
2023-02-27T04:16:56.675Z,95899.00
2023-02-27T04:17:56.672Z,95901.00
2023-02-27T04:18:57.009Z,95903.00
2023-02-27T04:19:56.803Z,95903.00
2023-02-27T04:20:56.883Z,95903.00
2023-02-27T04:21:55.903Z,95905.00
2023-02-27T04:22:56.930Z,95907.00
2023-02-27T04:23:55.981Z,95905.00
2023-02-27T04:24:57.059Z,95903.00
2023-02-27T04:25:57.162Z,95905.00
2023-02-27T04:26:57.166Z,95905.00
2023-02-27T04:27:57.224Z,95907.00
2023-02-27T04:28:57.326Z,95907.00
2023-02-27T04:29:57.323Z,95907.00
2023-02-27T04:30:57.449Z,95909.00
2023-02-27T04:31:57.636Z,95907.00
2023-02-27T04:32:57.474Z,95909.00
2023-02-27T04:33:57.524Z,95907.00
2023-02-27T04:34:57.565Z,95909.00
2023-02-27T04:35:57.650Z,95909.00
2023-02-27T04:36:57.868Z,95909.00
2023-02-27T04:37:57.703Z,95911.00
2023-02-27T04:38:57.812Z,95909.00
2023-02-27T04:39:58.389Z,95909.00
2023-02-27T04:40:57.899Z,95909.00
2023-02-27T04:41:57.918Z,95911.00
2023-02-27T04:42:57.979Z,95907.00
2023-02-27T04:43:57.043Z,95907.00
2023-02-27T04:44:57.095Z,95907.00
2023-02-27T04:45:57.220Z,95909.00
2023-02-27T04:46:58.202Z,95909.00
2023-02-27T04:47:58.267Z,95907.00
2023-02-27T04:48:58.306Z,95907.00
2023-02-27T04:49:58.347Z,95909.00
2023-02-27T04:50:58.423Z,95909.00
2023-02-27T04:51:58.491Z,95911.00
2023-02-27T04:52:57.514Z,95911.00
2023-02-27T04:53:58.555Z,95909.00
2023-02-27T04:54:57.614Z,95907.00
2023-02-27T04:55:58.696Z,95909.00
2023-02-27T04:56:58.733Z,95909.00
2023-02-27T04:57:58.785Z,95907.00
2023-02-27T04:58:58.844Z,95909.00
2023-02-27T04:59:58.876Z,95907.00
2023-02-27T05:00:59.048Z,95907.00
2023-02-27T05:01:58.199Z,95907.00
2023-02-27T05:02:59.140Z,95905.00
2023-02-27T05:04:00.380Z,95907.00
2023-02-27T05:04:59.156Z,95905.00
2023-02-27T05:05:58.259Z,95905.00
2023-02-27T05:06:59.298Z,95901.00
2023-02-27T05:07:59.345Z,95903.00
2023-02-27T05:08:59.372Z,95903.00
2023-02-27T05:09:58.427Z,95901.00
2023-02-27T05:10:59.490Z,95905.00
2023-02-27T05:11:59.520Z,95905.00
2023-02-27T05:12:59.660Z,95905.00
2023-02-27T05:13:59.630Z,95905.00
2023-02-27T05:14:59.729Z,95901.00
2023-02-27T05:15:59.949Z,95903.00
2023-02-27T05:16:58.795Z,95899.00
2023-02-27T05:17:59.933Z,95905.00
2023-02-27T05:18:59.930Z,95905.00
2023-02-27T05:19:59.937Z,95907.00
2023-02-27T05:21:00.025Z,95905.00
2023-02-27T05:22:00.122Z,95903.00
2023-02-27T05:22:59.102Z,95905.00
2023-02-27T05:24:00.266Z,95905.00
2023-02-27T05:25:00.193Z,95901.00
2023-02-27T05:25:59.281Z,95899.00
2023-02-27T05:27:00.327Z,95899.00
2023-02-27T05:27:59.380Z,95899.00
2023-02-27T05:29:00.426Z,95901.00
2023-02-27T05:30:00.500Z,95899.00
2023-02-27T05:31:00.568Z,95899.00
2023-02-27T05:32:00.671Z,95899.00
2023-02-27T05:33:00.648Z,95903.00
2023-02-27T05:33:59.680Z,95899.00
2023-02-27T05:35:00.735Z,95899.00
2023-02-27T05:35:59.821Z,95903.00
2023-02-27T05:37:00.924Z,95905.00
2023-02-27T05:38:00.923Z,95903.00
2023-02-27T05:39:00.961Z,95901.00
2023-02-27T05:40:01.039Z,95899.00
2023-02-27T05:41:01.067Z,95901.00
2023-02-27T05:42:00.146Z,95899.00
2023-02-27T05:43:00.191Z,95899.00
2023-02-27T05:44:01.285Z,95899.00
2023-02-27T05:45:01.296Z,95899.00
2023-02-27T05:46:01.383Z,95901.00
2023-02-27T05:47:01.425Z,95899.00
2023-02-27T05:48:01.503Z,95899.00
2023-02-27T05:49:01.530Z,95901.00
2023-02-27T05:50:01.597Z,95901.00
2023-02-27T05:51:01.677Z,95901.00
2023-02-27T05:52:01.828Z,95899.00
2023-02-27T05:53:01.769Z,95901.00
2023-02-27T05:54:01.833Z,95897.00
2023-02-27T05:55:01.894Z,95901.00
2023-02-27T05:56:01.975Z,95901.00
2023-02-27T05:57:02.009Z,95903.00
2023-02-27T05:58:02.048Z,95903.00
2023-02-27T05:59:02.108Z,95905.00
2023-02-27T06:00:02.165Z,95903.00
2023-02-27T06:01:01.259Z,95905.00
2023-02-27T06:02:02.325Z,95905.00
2023-02-27T06:03:02.385Z,95903.00
2023-02-27T06:04:02.389Z,95903.00
2023-02-27T06:05:02.494Z,95905.00
2023-02-27T06:06:02.507Z,95903.00
2023-02-27T06:07:02.560Z,95905.00
2023-02-27T06:08:01.633Z,95903.00
2023-02-27T06:09:02.656Z,95901.00
2023-02-27T06:11:02.692Z,95903.00
2023-02-27T06:12:02.724Z,95901.00
2023-02-27T06:13:02.689Z,95901.00
2023-02-27T06:14:02.684Z,95903.00
2023-02-27T06:15:01.692Z,95903.00
2023-02-27T06:16:02.667Z,95905.00
2023-02-27T06:17:01.721Z,95903.00
2023-02-27T06:18:01.649Z,95905.00
2023-02-27T06:19:04.909Z,95905.00
2023-02-27T06:20:01.628Z,95907.00
2023-02-27T06:21:01.643Z,95911.00
2023-02-27T06:22:01.617Z,95913.00
2023-02-27T06:23:02.627Z,95913.00
2023-02-27T06:24:02.625Z,95915.00
2023-02-27T06:25:02.594Z,95913.00
2023-02-27T06:26:02.597Z,95919.00
2023-02-27T06:27:02.597Z,95915.00
2023-02-27T06:28:02.599Z,95917.00
2023-02-27T06:29:02.581Z,95917.00
2023-02-27T06:30:02.552Z,95923.00
2023-02-27T06:31:02.576Z,95925.00
2023-02-27T06:32:01.568Z,95925.00
2023-02-27T06:33:02.528Z,95919.00
2023-02-27T06:34:01.522Z,95923.00
2023-02-27T06:35:02.526Z,95927.00
2023-02-27T06:36:02.521Z,95927.00
2023-02-27T06:37:04.262Z,95925.00
2023-02-27T06:38:01.488Z,95927.00
2023-02-27T06:39:01.483Z,95930.00
2023-02-27T06:40:02.469Z,95927.00
2023-02-27T06:41:01.461Z,95929.00
2023-02-27T06:42:02.445Z,95925.00
2023-02-27T06:43:02.463Z,95934.00
2023-02-27T06:44:01.469Z,95929.00
2023-02-27T06:45:02.433Z,95925.00
2023-02-27T06:46:02.530Z,95923.00
2023-02-27T06:47:02.528Z,95927.00
2023-02-27T06:48:01.432Z,95925.00
2023-02-27T06:49:02.409Z,95923.00
2023-02-27T06:50:01.414Z,95925.00
2023-02-27T06:51:02.396Z,95925.00
2023-02-27T06:52:02.379Z,95929.00
2023-02-27T06:53:01.384Z,95929.00
2023-02-27T06:54:01.372Z,95929.00
2023-02-27T06:55:02.408Z,95929.00
2023-02-27T06:56:02.369Z,95927.00
2023-02-27T06:57:01.369Z,95930.00
2023-02-27T06:58:02.347Z,95930.00
2023-02-27T06:59:02.326Z,95929.00
2023-02-27T07:00:02.354Z,95929.00
2023-02-27T07:01:02.370Z,95927.00
2023-02-27T07:02:02.305Z,95929.00
2023-02-27T07:03:02.437Z,95929.00
2023-02-27T07:04:02.300Z,95932.00
2023-02-27T07:05:07.888Z,95929.00
2023-02-27T07:06:02.278Z,95929.00
2023-02-27T07:07:34.860Z,95929.00
2023-02-27T07:08:02.262Z,95919.00
2023-02-27T07:09:06.998Z,95915.00
2023-02-27T07:10:02.270Z,95919.00
2023-02-27T07:11:02.294Z,95919.00
2023-02-27T07:12:01.222Z,95925.00
2023-02-27T07:13:02.228Z,95923.00
2023-02-27T07:14:02.206Z,95921.00
2023-02-27T07:18:02.182Z,95921.00
2023-02-27T07:19:02.180Z,95925.00
2023-02-27T07:20:02.168Z,95921.00
2023-02-27T07:21:02.161Z,95923.00
2023-02-27T07:22:02.160Z,95929.00
2023-02-27T07:30:02.100Z,95929.00
2023-02-27T07:31:02.268Z,95929.00
2023-02-27T07:32:02.140Z,95929.00
2023-02-27T07:33:02.080Z,95930.00
2023-02-27T07:34:02.058Z,95929.00
2023-02-27T07:35:01.066Z,95930.00
2023-02-27T07:36:02.089Z,95936.00
2023-02-27T07:37:01.046Z,95932.00
2023-02-27T07:38:02.069Z,95932.00
2023-02-27T07:39:02.021Z,95932.00
2023-02-27T07:40:02.028Z,95932.00
2023-02-27T07:41:01.017Z,95934.00
2023-02-27T07:42:01.997Z,95932.00
2023-02-27T07:44:02.045Z,95934.00
2023-02-27T07:45:01.983Z,95934.00
2023-02-27T07:46:02.038Z,95936.00
2023-02-27T07:47:02.011Z,95934.00
2023-02-27T07:48:02.022Z,95934.00
2023-02-27T07:49:01.955Z,95934.00
2023-02-27T07:50:02.021Z,95934.00
2023-02-27T07:51:02.081Z,95934.00
2023-02-27T07:52:02.118Z,95936.00
2023-02-27T07:53:02.461Z,95936.00
2023-02-27T07:54:02.191Z,95936.00
2023-02-27T07:55:02.284Z,95936.00
2023-02-27T07:56:02.295Z,95938.00
2023-02-27T07:57:02.345Z,95940.00
2023-02-27T07:58:01.456Z,95940.00
2023-02-27T07:59:02.454Z,95944.00
2023-02-27T08:00:02.412Z,95952.00
2023-02-27T08:01:02.446Z,95944.00
2023-02-27T08:02:02.445Z,95956.00
2023-02-27T08:03:02.524Z,95954.00
2023-02-27T08:04:02.530Z,95954.00
2023-02-27T08:05:02.530Z,95956.00
2023-02-27T08:06:02.683Z,95954.00
2023-02-27T08:08:02.512Z,95956.00
2023-02-27T08:09:02.499Z,95958.00
2023-02-27T08:10:02.506Z,95958.00
2023-02-27T08:11:02.510Z,95958.00
2023-02-27T08:12:02.522Z,95960.00
2023-02-27T08:13:01.580Z,95960.00
2023-02-27T08:14:03.301Z,95964.00
2023-02-27T08:15:02.663Z,95966.00
2023-02-27T08:16:02.748Z,95962.00
2023-02-27T08:17:01.740Z,95962.00
2023-02-27T08:18:02.755Z,95964.00
2023-02-27T08:20:02.815Z,95960.00
2023-02-27T08:21:02.860Z,95964.00
2023-02-27T08:22:01.919Z,95966.00
2023-02-27T08:23:02.982Z,95960.00
2023-02-27T08:24:03.035Z,95960.00
2023-02-27T08:25:03.089Z,95962.00
2023-02-27T08:26:03.153Z,95962.00
2023-02-27T08:27:03.218Z,95962.00
2023-02-27T08:28:03.280Z,95962.00
2023-02-27T08:29:03.333Z,95962.00
2023-02-27T08:30:03.395Z,95962.00
2023-02-27T08:31:03.524Z,95962.00
2023-02-27T08:32:02.616Z,95962.00
2023-02-27T08:33:03.586Z,95962.00
2023-02-27T08:34:10.282Z,95960.00
2023-02-27T08:35:03.646Z,95960.00
2023-02-27T08:36:02.766Z,95960.00
2023-02-27T08:37:02.637Z,95966.00
2023-02-27T08:38:02.621Z,95964.00
2023-02-27T08:39:03.617Z,95968.00
2023-02-27T08:40:02.610Z,95970.00
2023-02-27T08:41:02.602Z,95966.00
2023-02-27T08:42:03.636Z,95968.00
2023-02-27T08:43:03.615Z,95968.00
2023-02-27T08:44:03.568Z,95972.00
2023-02-27T08:45:03.573Z,95970.00
2023-02-27T08:46:03.595Z,95976.00
2023-02-27T08:47:03.547Z,95978.00
2023-02-27T08:48:02.979Z,95978.00
2023-02-27T08:49:03.535Z,95972.00
2023-02-27T08:50:03.607Z,95972.00
2023-02-27T08:51:03.527Z,95974.00
2023-02-27T08:52:02.537Z,95978.00
2023-02-27T08:53:03.976Z,95976.00
2023-02-27T08:54:03.496Z,95976.00
2023-02-27T08:55:03.484Z,95980.00
2023-02-27T08:56:02.471Z,95978.00
2023-02-27T08:57:03.468Z,95978.00
2023-02-27T08:58:03.480Z,95980.00
2023-02-27T08:59:03.460Z,95980.00
2023-02-27T09:00:03.599Z,95982.00
2023-02-27T09:01:03.510Z,95982.00
2023-02-27T09:02:03.429Z,95982.00
2023-02-27T09:03:03.482Z,95980.00
2023-02-27T09:04:03.415Z,95982.00
2023-02-27T09:05:02.406Z,95985.00
2023-02-27T09:06:02.405Z,95983.00
2023-02-27T09:07:03.392Z,95983.00
2023-02-27T09:08:03.824Z,95983.00
2023-02-27T09:09:02.389Z,95980.00
2023-02-27T09:10:03.392Z,95980.00
2023-02-27T09:11:03.379Z,95980.00
2023-02-27T09:12:03.371Z,95978.00
2023-02-27T09:13:02.383Z,95982.00
2023-02-27T09:14:03.351Z,95983.00
2023-02-27T09:15:03.346Z,95982.00
2023-02-27T09:16:03.323Z,95982.00
2023-02-27T09:17:03.326Z,95983.00
2023-02-27T09:18:03.488Z,95983.00
2023-02-27T09:19:03.329Z,95982.00
2023-02-27T09:20:03.333Z,95985.00
2023-02-27T09:21:03.373Z,95985.00
2023-02-27T09:22:03.366Z,95987.00
2023-02-27T09:23:03.391Z,95989.00
2023-02-27T09:24:13.746Z,95989.00
2023-02-27T09:25:03.400Z,95991.00
2023-02-27T09:26:02.402Z,95993.00
2023-02-27T09:27:03.383Z,95995.00
2023-02-27T09:28:03.387Z,95995.00
2023-02-27T09:29:03.359Z,95997.00
2023-02-27T09:30:03.393Z,95997.00
2023-02-27T09:31:03.356Z,95997.00
2023-02-27T09:32:02.522Z,95999.00
2023-02-27T09:33:03.490Z,95999.00
2023-02-27T09:34:02.335Z,95999.00
2023-02-27T09:35:03.327Z,95999.00
2023-02-27T09:36:03.473Z,96001.00
2023-02-27T09:37:03.308Z,96003.00
2023-02-27T09:39:03.280Z,96005.00
2023-02-27T09:40:03.300Z,96005.00
2023-02-27T09:41:03.276Z,96009.00
2023-02-27T09:42:03.280Z,96005.00
2023-02-27T09:43:03.548Z,96007.00
2023-02-27T09:44:02.257Z,96009.00
2023-02-27T09:45:05.855Z,96005.00
2023-02-27T09:46:03.452Z,96009.00
2023-02-27T09:47:04.006Z,96007.00
2023-02-27T09:48:03.221Z,96009.00
2023-02-27T09:49:02.209Z,96013.00
2023-02-27T09:50:02.203Z,96013.00
2023-02-27T09:51:03.207Z,96013.00
2023-02-27T09:52:02.183Z,96015.00
2023-02-27T09:53:02.188Z,96013.00
2023-02-27T09:54:03.182Z,96017.00
2023-02-27T09:55:03.178Z,96019.00
2023-02-27T09:56:03.204Z,96019.00
2023-02-27T09:57:03.154Z,96019.00
2023-02-27T09:58:03.499Z,96021.00
2023-02-27T09:59:02.130Z,96023.00
2023-02-27T10:00:02.140Z,96025.00
2023-02-27T10:01:02.121Z,96021.00
2023-02-27T10:02:02.178Z,96029.00
2023-02-27T10:03:02.244Z,96027.00
2023-02-27T10:04:03.225Z,96029.00
2023-02-27T10:05:03.266Z,96029.00
2023-02-27T10:06:02.354Z,96027.00
2023-02-27T10:07:03.401Z,96027.00
2023-02-27T10:08:03.515Z,96027.00
2023-02-27T10:09:03.480Z,96030.00
2023-02-27T10:10:03.514Z,96027.00
2023-02-27T10:11:03.563Z,96027.00
2023-02-27T10:12:04.138Z,96029.00
2023-02-27T10:13:03.654Z,96030.00
2023-02-27T10:14:03.670Z,96032.00
2023-02-27T10:15:02.687Z,96030.00
2023-02-27T10:16:02.730Z,96034.00
2023-02-27T10:17:03.836Z,96036.00
2023-02-27T10:18:13.009Z,96040.00
2023-02-27T10:19:03.784Z,96040.00
2023-02-27T10:20:03.788Z,96040.00
2023-02-27T10:21:03.765Z,96038.00
2023-02-27T10:22:03.766Z,96042.00
2023-02-27T10:23:03.746Z,96042.00
2023-02-27T10:24:05.583Z,96040.00
2023-02-27T10:25:03.754Z,96044.00
2023-02-27T10:26:02.734Z,96044.00
2023-02-27T10:27:03.734Z,96050.00
2023-02-27T10:28:02.764Z,96048.00
2023-02-27T10:29:02.718Z,96050.00
2023-02-27T10:30:03.716Z,96046.00
2023-02-27T10:31:03.780Z,96048.00
2023-02-27T10:32:03.783Z,96046.00
2023-02-27T10:33:02.692Z,96046.00
2023-02-27T10:34:02.719Z,96044.00
2023-02-27T10:35:03.670Z,96046.00
2023-02-27T10:36:03.837Z,96048.00
2023-02-27T10:37:02.657Z,96048.00
2023-02-27T10:38:03.651Z,96046.00
2023-02-27T10:39:02.674Z,96048.00
2023-02-27T10:40:02.691Z,96048.00
2023-02-27T10:41:03.642Z,96048.00
2023-02-27T10:42:03.632Z,96050.00
2023-02-27T10:43:06.111Z,96052.00
2023-02-27T10:44:03.691Z,96054.00
2023-02-27T10:45:03.659Z,96056.00
2023-02-27T10:46:03.665Z,96048.00
2023-02-27T10:47:03.605Z,96056.00
2023-02-27T10:48:03.589Z,96050.00
2023-02-27T10:49:04.039Z,96054.00
2023-02-27T10:50:03.568Z,96052.00
2023-02-27T10:51:03.595Z,96052.00
2023-02-27T10:52:03.575Z,96050.00
2023-02-27T10:53:02.540Z,96052.00
2023-02-27T10:54:03.553Z,96050.00
2023-02-27T10:55:03.558Z,96050.00
2023-02-27T10:56:03.605Z,96050.00
2023-02-27T10:57:03.522Z,96050.00
2023-02-27T10:58:03.511Z,96048.00
2023-02-27T10:59:03.507Z,96048.00
2023-02-27T11:00:02.532Z,96046.00
2023-02-27T11:01:03.479Z,96046.00
2023-02-27T11:02:02.478Z,96050.00
2023-02-27T11:03:03.459Z,96050.00
2023-02-27T11:04:03.453Z,96050.00
2023-02-27T11:05:02.456Z,96046.00
2023-02-27T11:06:03.455Z,96052.00
2023-02-27T11:07:02.424Z,96052.00
2023-02-27T11:08:03.435Z,96052.00
2023-02-27T11:09:03.428Z,96048.00
2023-02-27T11:10:03.418Z,96052.00
2023-02-27T11:11:03.413Z,96052.00
2023-02-27T11:12:03.401Z,96052.00
2023-02-27T11:13:03.393Z,96056.00
2023-02-27T11:14:03.398Z,96052.00
2023-02-27T11:15:03.379Z,96054.00
2023-02-27T11:16:03.578Z,96054.00
2023-02-27T11:17:03.380Z,96052.00
2023-02-27T11:18:02.353Z,96056.00
2023-02-27T11:19:03.347Z,96054.00
2023-02-27T11:20:03.339Z,96054.00
2023-02-27T11:21:03.349Z,96052.00
2023-02-27T11:22:03.325Z,96052.00
2023-02-27T11:23:03.333Z,96056.00
2023-02-27T11:24:03.367Z,96054.00
2023-02-27T11:25:04.298Z,96052.00
2023-02-27T11:26:03.505Z,96056.00
2023-02-27T11:27:03.569Z,96054.00
2023-02-27T11:28:03.635Z,96052.00
2023-02-27T11:29:02.703Z,96058.00
2023-02-27T11:30:03.755Z,96060.00
2023-02-27T11:31:03.895Z,96060.00
2023-02-27T11:32:03.925Z,96056.00
2023-02-27T11:33:02.945Z,96058.00
2023-02-27T11:34:03.020Z,96060.00
2023-02-27T11:35:04.071Z,96062.00
2023-02-27T11:36:04.134Z,96056.00
2023-02-27T11:37:04.092Z,96054.00
2023-02-27T11:38:03.157Z,96052.00
2023-02-27T11:39:04.186Z,96054.00
2023-02-27T11:40:04.215Z,96050.00
2023-02-27T11:41:03.286Z,96052.00
2023-02-27T11:42:04.308Z,96056.00
2023-02-27T11:43:04.374Z,96058.00
2023-02-27T11:44:04.540Z,96058.00
2023-02-27T11:45:04.458Z,96062.00
2023-02-27T11:46:36.689Z,96056.00
2023-02-27T11:47:04.504Z,96052.00
2023-02-27T11:48:03.529Z,96058.00
2023-02-27T11:49:03.469Z,96058.00
2023-02-27T11:50:04.473Z,96056.00
2023-02-27T11:51:04.456Z,96062.00
2023-02-27T11:52:04.453Z,96058.00
2023-02-27T11:53:03.450Z,96060.00
2023-02-27T11:54:03.442Z,96056.00
2023-02-27T11:55:04.425Z,96056.00
2023-02-27T11:56:04.422Z,96060.00
2023-02-27T11:57:03.427Z,96058.00
2023-02-27T11:58:04.414Z,96056.00
2023-02-27T11:59:04.395Z,96054.00
2023-02-27T12:00:04.393Z,96056.00
2023-02-27T12:01:04.378Z,96056.00
2023-02-27T12:02:04.377Z,96054.00
2023-02-27T12:03:04.405Z,96052.00
2023-02-27T12:04:03.446Z,96056.00